Time;durP1;ratioP1;P1;durP2;ratioP2;P2;SDS_P1;SDS_P2;PMS_P1;PMS_P2;Temp;Humidity;BMP_temperature;BMP_pressure;BME280_temperature;BME280_humidity;BME280_pressure;Samples;Min_cycle;Max_cycle;Signal;HPM_P1;HPM_P2
2024/04/10 01:36:54;;;;;;;4.43;1.90;;;8.50;83.10;;;;;;6219621;22;20425;-78
2024/04/10 01:50:56;;;;;;;5.85;2.33;;;8.60;82.90;;;;;;5778727;24;20034;-78
2024/04/10 01:57:29;;;;;;;;;;;8.60;82.90;;;;;;4530728;27;15415749;-78
2024/04/10 02:14:19;;;;;;;5.47;2.47;;;8.60;82.90;;;;;;4958364;28;20383;-76
2024/04/10 02:21:25;;;;;;;;;;;;;;;;;;;;;
2024/04/10 02:24:58;;;;;;;6.63;2.40;;;8.40;83.80;;;;;;4888899;29;19968;-76
2024/04/10 02:28:13;;;;;;;6.95;2.60;;;8.40;83.90;;;;;;4887507;29;20079;-77
2024/04/10 02:38:52;;;;;;;;;;;;;;;;;;;;;
2024/04/10 02:50:03;;;;;;;;;;;;;;;;;;;;;
2024/04/10 02:52:31;;;;;;;9.60;3.42;;;8.20;84.60;;;;;;4963049;28;20088;-77
2024/04/10 02:54:57;;;;;;;9.10;3.30;;;8.20;84.80;;;;;;5038769;28;20101;-77
2024/04/10 02:57:26;;;;;;;7.93;3.50;;;8.10;84.60;;;;;;5052876;28;20040;-77
2024/04/10 02:59:52;;;;;;;8.27;3.30;;;8.10;84.60;;;;;;5070829;28;20121;-76
2024/04/10 03:02:58;;;;;;;5.07;3.08;;;8.00;84.60;;;;;;5048861;28;20047;-76
2024/04/10 03:08:59;;;;;;;5.45;2.75;;;8.00;84.80;;;;;;4978094;28;20494;-77
2024/04/10 03:11:25;;;;;;;5.45;2.50;;;8.00;84.80;;;;;;5037810;28;20040;-76
2024/04/10 03:13:52;;;;;;;4.45;2.35;;;8.00;84.80;;;;;;5058322;28;20043;-76
2024/04/10 03:16:18;;;;;;;7.20;2.65;;;8.00;84.80;;;;;;5055375;28;20048;-76
2024/04/10 03:18:44;;;;;;;6.57;2.88;;;8.00;84.80;;;;;;5056215;28;20118;-76
2024/04/10 03:21:16;;;;;;;6.65;2.95;;;8.00;84.80;;;;;;5033534;28;20041;-76
2024/04/10 03:23:42;;;;;;;7.28;3.22;;;8.00;84.90;;;;;;5055592;28;20068;-76
2024/04/10 03:26:09;;;;;;;5.35;2.90;;;8.00;84.80;;;;;;5038706;28;20082;-76
2024/04/10 03:28:35;;;;;;;7.18;3.20;;;7.90;84.70;;;;;;5023159;28;20049;-76
2024/04/10 03:31:04;;;;;;;7.88;3.78;;;7.90;84.80;;;;;;5038784;28;20068;-76
2024/04/10 03:33:30;;;;;;;11.68;4.95;;;7.80;84.70;;;;;;5049904;28;20048;-75
2024/04/10 03:35:58;;;;;;;6.22;4.45;;;7.70;84.60;;;;;;5050952;28;20715;-76
2024/04/10 03:38:28;;;;;;;10.30;5.32;;;7.70;84.70;;;;;;5036534;28;20048;-77
2024/04/10 03:40:53;;;;;;;10.10;5.78;;;7.70;84.80;;;;;;5066001;28;20032;-76
2024/04/10 03:43:19;;;;;;;12.60;5.30;;;7.60;84.70;;;;;;5069916;28;20094;-76
2024/04/10 03:45:49;;;;;;;11.95;5.72;;;7.60;84.80;;;;;;5071154;28;20041;-76
2024/04/10 03:48:18;;;;;;;12.68;5.38;;;7.50;84.80;;;;;;5054655;28;20048;-76
2024/04/10 03:50:43;;;;;;;17.90;6.78;;;7.50;84.80;;;;;;5037609;28;20114;-76
2024/04/10 03:53:10;;;;;;;14.40;6.72;;;7.50;84.70;;;;;;5057900;28;20052;-76
2024/04/10 03:55:35;;;;;;;12.48;6.38;;;7.40;84.70;;;;;;5079356;28;20475;-74
2024/04/10 03:58:01;;;;;;;19.02;7.03;;;7.30;84.70;;;;;;5051358;28;20072;-74
2024/04/10 04:00:27;;;;;;;19.42;7.30;;;7.30;84.90;;;;;;5055066;28;20399;-73
2024/04/10 04:02:52;;;;;;;13.20;6.32;;;7.30;84.90;;;;;;5074139;28;20390;-74
2024/04/10 04:05:18;;;;;;;17.10;6.63;;;7.30;84.90;;;;;;5044342;28;20948;-73
2024/04/10 04:07:44;;;;;;;16.92;7.15;;;7.30;85.00;;;;;;5044896;28;20106;-72
2024/04/10 04:10:09;;;;;;;16.08;7.20;;;7.30;85.10;;;;;;5052235;28;20078;-72
2024/04/10 04:12:35;;;;;;;17.13;7.90;;;7.30;85.10;;;;;;5069429;28;20032;-72
2024/04/10 04:15:02;;;;;;;17.95;7.55;;;7.40;85.30;;;;;;5067063;28;20119;-72
2024/04/10 04:17:27;;;;;;;18.70;7.20;;;7.40;85.30;;;;;;5068167;28;20080;-72
2024/04/10 04:19:53;;;;;;;21.40;8.30;;;7.40;85.40;;;;;;5059812;28;20409;-71
2024/04/10 04:22:19;;;;;;;17.60;7.75;;;7.40;85.40;;;;;;5052698;28;20500;-70
2024/04/10 04:24:44;;;;;;;15.73;7.28;;;7.40;85.40;;;;;;5046686;28;20032;-70
2024/04/10 04:27:11;;;;;;;17.67;6.72;;;7.40;85.40;;;;;;5026207;28;20074;-70
2024/04/10 04:29:37;;;;;;;24.38;7.30;;;7.40;85.40;;;;;;5051306;28;20047;-70
2024/04/10 04:32:04;;;;;;;19.45;7.38;;;7.30;85.30;;;;;;5049904;28;20414;-70
2024/04/10 04:34:29;;;;;;;18.23;7.22;;;7.30;85.20;;;;;;5049522;28;20040;-70
2024/04/10 04:36:55;;;;;;;18.60;7.65;;;7.30;85.20;;;;;;5073342;28;20047;-68
2024/04/10 04:39:20;;;;;;;17.85;7.40;;;7.20;85.20;;;;;;5052135;28;20040;-68
2024/04/10 04:41:46;;;;;;;19.27;6.80;;;7.20;85.20;;;;;;5050148;28;20044;-68
2024/04/10 04:44:12;;;;;;;24.90;7.72;;;7.30;85.20;;;;;;5042680;28;20394;-68
2024/04/10 04:46:37;;;;;;;23.42;6.90;;;7.30;85.20;;;;;;5048971;28;20040;-68
2024/04/10 04:49:03;;;;;;;21.48;6.80;;;7.20;85.20;;;;;;5073289;28;20043;-67
2024/04/10 04:51:29;;;;;;;24.63;7.93;;;7.20;85.20;;;;;;5038326;28;20045;-67
2024/04/10 04:53:54;;;;;;;16.73;7.07;;;7.20;85.20;;;;;;5055679;28;20040;-67
2024/04/10 04:56:20;;;;;;;17.00;7.07;;;7.20;85.20;;;;;;5053370;28;20054;-67
2024/04/10 04:58:45;;;;;;;24.52;7.88;;;7.20;85.20;;;;;;5037173;28;20041;-67
2024/04/10 05:01:11;;;;;;;24.33;7.47;;;7.30;85.20;;;;;;5054490;28;20041;-67
2024/04/10 05:06:21;;;;;;;22.30;7.55;;;7.20;85.20;;;;;;5056633;28;20048;-68
2024/04/10 05:08:49;;;;;;;17.50;7.00;;;7.20;85.20;;;;;;5055107;28;20379;-68
2024/04/10 05:11:16;;;;;;;19.67;7.10;;;7.30;85.20;;;;;;5055099;28;20759;-68
2024/04/10 05:13:42;;;;;;;23.02;7.72;;;7.30;85.20;;;;;;5035577;28;20044;-68
2024/04/10 05:16:10;;;;;;;20.65;7.13;;;7.30;85.20;;;;;;5051662;28;20040;-68
2024/04/10 05:18:36;;;;;;;22.13;7.72;;;7.30;85.20;;;;;;5053334;28;20044;-68
2024/04/10 05:21:02;;;;;;;18.70;6.80;;;7.30;85.20;;;;;;5048453;28;20055;-67
2024/04/10 05:23:28;;;;;;;23.67;7.93;;;7.30;85.20;;;;;;5021079;28;20045;-68
2024/04/10 05:26:01;;;;;;;18.85;7.18;;;7.30;85.20;;;;;;5055665;28;20102;-68
2024/04/10 05:28:27;;;;;;;19.70;7.22;;;7.30;85.20;;;;;;5020744;28;20048;-68
2024/04/10 05:31:00;;;;;;;22.88;6.90;;;7.30;85.20;;;;;;5032050;28;20503;-68
2024/04/10 05:33:26;;;;;;;20.40;7.40;;;7.30;85.20;;;;;;5055892;28;20376;-68
2024/04/10 05:36:06;;;;;;;15.80;7.05;;;7.30;85.20;;;;;;5023043;28;20068;-68
2024/04/10 05:38:32;;;;;;;16.10;6.95;;;7.30;85.20;;;;;;5054907;28;20523;-67
2024/04/10 05:40:58;;;;;;;19.83;7.03;;;7.30;85.20;;;;;;5048982;28;20067;-67
2024/04/10 05:43:25;;;;;;;18.25;7.55;;;7.30;85.30;;;;;;5049337;28;20043;-68
2024/04/10 05:45:54;;;;;;;21.02;7.50;;;7.30;85.30;;;;;;5058765;28;20045;-67
2024/04/10 05:48:20;;;;;;;18.15;6.68;;;7.40;85.40;;;;;;5039059;28;20503;-67
2024/04/10 05:50:46;;;;;;;16.58;7.10;;;7.30;85.40;;;;;;5046701;28;20123;-68
2024/04/10 05:53:12;;;;;;;15.50;7.10;;;7.40;85.40;;;;;;5029713;28;20527;-67
2024/04/10 05:55:39;;;;;;;19.60;7.80;;;7.40;85.40;;;;;;4983525;28;20049;-67
2024/04/10 05:58:05;;;;;;;18.38;8.15;;;7.40;85.50;;;;;;4989562;28;20053;-68
2024/04/10 06:00:31;;;;;;;18.60;7.82;;;7.40;85.60;;;;;;4975389;28;20503;-67
2024/04/10 06:02:57;;;;;;;19.92;8.60;;;7.40;85.60;;;;;;5007180;28;20037;-68
2024/04/10 06:05:24;;;;;;;27.27;9.50;;;7.50;85.70;;;;;;5010789;28;20041;-67
2024/04/10 06:07:50;;;;;;;26.23;9.02;;;7.50;85.80;;;;;;5014700;28;20508;-67
2024/04/10 06:10:19;;;;;;;22.10;8.07;;;7.50;85.80;;;;;;5006257;28;20042;-68
2024/04/10 06:12:51;;;;;;;26.75;9.02;;;7.60;85.90;;;;;;5001166;28;20529;-67
2024/04/10 06:15:17;;;;;;;25.13;8.80;;;7.70;85.90;;;;;;5003968;28;20048;-68
2024/04/10 06:17:42;;;;;;;28.60;10.00;;;7.80;86.10;;;;;;4986425;28;20038;-68
2024/04/10 06:20:11;;;;;;;24.00;9.27;;;7.90;86.20;;;;;;5003493;28;20037;-68
2024/04/10 06:22:38;;;;;;;27.45;10.48;;;7.90;86.30;;;;;;5004014;28;20046;-68
2024/04/10 06:25:04;;;;;;;25.48;9.90;;;8.00;86.40;;;;;;4985023;28;20049;-68
2024/04/10 06:27:29;;;;;;;28.00;9.20;;;8.10;86.40;;;;;;4996235;28;20499;-68
2024/04/10 06:29:55;;;;;;;32.05;10.10;;;8.10;86.40;;;;;;4996934;28;20052;-68
2024/04/10 06:32:21;;;;;;;31.55;9.75;;;8.20;86.40;;;;;;5005033;28;20045;-68
2024/04/10 06:34:46;;;;;;;33.53;9.55;;;8.30;86.40;;;;;;5003314;28;20420;-68
2024/04/10 06:37:15;;;;;;;29.02;9.55;;;8.40;86.40;;;;;;5006205;28;20977;-67
2024/04/10 06:39:40;;;;;;;31.13;9.82;;;8.40;86.40;;;;;;4995236;28;20037;-68
2024/04/10 06:42:06;;;;;;;32.90;9.82;;;8.50;86.50;;;;;;5016568;28;20037;-69
2024/04/10 06:44:32;;;;;;;36.42;10.50;;;8.50;86.40;;;;;;5019949;28;20602;-68
2024/04/10 06:46:57;;;;;;;28.48;9.43;;;8.60;86.40;;;;;;5018752;28;20542;-68
2024/04/10 06:49:24;;;;;;;26.33;9.75;;;8.60;86.30;;;;;;5019099;28;20049;-68
2024/04/10 06:51:50;;;;;;;28.05;9.18;;;8.70;86.40;;;;;;5018436;28;20045;-69
2024/04/10 06:54:15;;;;;;;31.75;9.80;;;8.70;86.30;;;;;;5002757;28;20064;-69
2024/04/10 06:56:41;;;;;;;29.73;9.68;;;8.80;86.30;;;;;;5054524;28;20553;-69
2024/04/10 06:59:07;;;;;;;34.03;9.65;;;8.90;86.30;;;;;;5044024;28;20932;-69
2024/04/10 07:01:33;;;;;;;33.13;10.23;;;9.00;86.20;;;;;;5045202;28;20106;-68
2024/04/10 07:03:58;;;;;;;24.17;8.63;;;9.00;86.10;;;;;;5060917;28;20076;-69
2024/04/10 07:06:24;;;;;;;27.02;9.00;;;9.00;86.10;;;;;;5060728;28;20123;-69
2024/04/10 07:08:51;;;;;;;30.95;9.65;;;9.20;86.10;;;;;;5023608;28;20509;-70
2024/04/10 07:11:20;;;;;;;23.83;9.65;;;9.20;86.20;;;;;;5025413;28;20117;-70
2024/04/10 07:13:50;;;;;;;32.22;9.48;;;9.30;86.00;;;;;;5040773;28;20407;-69
2024/04/10 07:16:17;;;;;;;26.92;9.35;;;9.30;85.90;;;;;;5037190;28;20518;-70
2024/04/10 07:18:44;;;;;;;29.85;10.35;;;9.40;85.80;;;;;;5037657;28;20077;-71
2024/04/10 07:21:14;;;;;;;33.13;10.45;;;9.40;85.90;;;;;;5038414;28;20053;-71
2024/04/10 07:23:41;;;;;;;34.65;9.00;;;9.60;85.90;;;;;;5033947;28;20044;-70
2024/04/10 07:26:22;;;;;;;27.42;9.50;;;9.60;85.90;;;;;;5033304;28;20521;-70
2024/04/10 07:28:52;;;;;;;30.20;9.18;;;9.80;85.90;;;;;;5051600;28;20123;-72
2024/04/10 07:31:31;;;;;;;29.45;8.63;;;9.80;85.80;;;;;;5050845;28;20049;-72
2024/04/10 07:33:57;;;;;;;28.58;9.40;;;9.90;85.50;;;;;;5034465;28;20270;-74
2024/04/10 07:36:26;;;;;;;28.40;8.95;;;10.00;85.20;;;;;;5034583;28;20076;-74
2024/04/10 07:38:58;;;;;;;24.60;8.45;;;10.10;85.40;;;;;;5035967;28;20784;-75
2024/04/10 07:41:24;;;;;;;28.10;9.05;;;10.10;85.30;;;;;;5036701;28;20079;-77
2024/04/10 07:43:51;;;;;;;28.23;8.20;;;10.10;85.20;;;;;;5052974;28;20568;-76
2024/04/10 07:46:33;;;;;;;24.85;8.63;;;10.10;84.40;;;;;;5036746;28;20567;-76
2024/04/10 07:48:59;;;;;;;28.75;8.60;;;10.10;84.60;;;;;;5036826;28;20692;-77
2024/04/10 07:51:34;;;;;;;29.73;9.45;;;10.10;84.40;;;;;;5034682;28;20137;-77
2024/04/10 07:54:00;;;;;;;21.50;8.52;;;10.10;84.10;;;;;;5034694;28;20640;-77
2024/04/10 07:56:27;;;;;;;21.58;8.07;;;10.10;84.00;;;;;;5036309;28;20053;-77
2024/04/10 07:58:53;;;;;;;27.00;8.48;;;10.20;83.70;;;;;;5033112;28;20041;-76
2024/04/10 08:01:22;;;;;;;26.63;8.15;;;10.30;83.70;;;;;;5028888;28;20041;-77
2024/04/10 08:03:48;;;;;;;21.35;7.75;;;10.40;84.00;;;;;;5024904;28;20049;-77
2024/04/10 08:06:29;;;;;;;21.98;7.25;;;10.40;83.20;;;;;;5020324;28;20049;-77
2024/04/10 10:01:02;;;;;;;19.52;6.07;;;13.00;79.00;;;;;;5047233;28;20059;-75
2024/04/10 10:03:28;;;;;;;17.67;5.43;;;14.40;79.40;;;;;;5035240;28;20064;-74
2024/04/10 10:06:05;;;;;;;17.95;4.88;;;13.60;79.90;;;;;;5018435;28;20045;-74
2024/04/10 10:09:26;;;;;;;12.55;4.97;;;13.60;79.10;;;;;;5047605;28;20571;-76
2024/04/10 12:43:30;;;;;;;9.93;3.10;;;15.70;74.80;;;;;;5036157;27;20158;-77
2024/04/10 12:46:45;;;;;;;8.98;3.08;;;15.90;74.70;;;;;;5010932;28;20045;-78
2024/04/10 12:50:10;;;;;;;9.80;3.17;;;15.60;72.90;;;;;;5015960;28;20091;-78
2024/04/10 12:52:48;;;;;;;11.40;3.25;;;15.50;74.20;;;;;;5013223;28;20059;-77
2024/04/10 12:55:14;;;;;;;13.15;3.58;;;15.80;74.80;;;;;;4996219;28;20140;-78
2024/04/10 12:57:40;;;;;;;8.45;2.53;;;16.20;75.00;;;;;;5013665;28;20053;-76
2024/04/10 13:00:06;;;;;;;13.88;2.92;;;16.50;72.60;;;;;;5031405;28;20041;-73
2024/04/10 13:02:32;;;;;;;14.57;3.30;;;16.70;72.50;;;;;;5019763;28;20056;-72
2024/04/10 13:04:57;;;;;;;7.82;2.38;;;17.00;73.70;;;;;;5037348;28;20503;-71
2024/04/10 13:07:23;;;;;;;9.52;3.22;;;17.10;73.40;;;;;;5015952;28;20045;-71
2024/04/10 13:09:50;;;;;;;8.70;2.95;;;16.80;72.10;;;;;;5039196;28;20413;-68
2024/04/10 13:12:16;;;;;;;12.50;3.10;;;16.80;71.90;;;;;;5013386;28;20048;-69
2024/04/10 13:14:43;;;;;;;9.25;2.47;;;17.00;71.10;;;;;;5013834;28;20431;-69
2024/04/10 13:17:08;;;;;;;7.85;2.70;;;17.30;70.60;;;;;;5013033;28;20049;-69
2024/04/10 13:19:34;;;;;;;11.45;2.70;;;17.40;70.30;;;;;;5033478;28;20041;-70
2024/04/10 13:22:03;;;;;;;8.10;2.63;;;17.10;69.80;;;;;;4982007;28;20040;-70
2024/04/10 13:24:29;;;;;;;9.27;2.20;;;17.00;70.00;;;;;;5013551;28;20495;-69
2024/04/10 13:26:55;;;;;;;6.68;2.45;;;16.90;70.90;;;;;;5032288;28;20176;-69
2024/04/10 13:29:21;;;;;;;8.00;2.42;;;16.90;70.70;;;;;;5013377;28;21437;-68
2024/04/10 13:31:47;;;;;;;8.68;2.50;;;16.70;70.40;;;;;;5014842;28;20524;-69
2024/04/10 13:34:13;;;;;;;15.48;3.72;;;16.30;70.20;;;;;;4999296;28;20052;-68
2024/04/10 13:36:39;;;;;;;10.48;2.67;;;16.00;70.50;;;;;;5011289;28;20049;-69
2024/04/10 13:39:04;;;;;;;8.65;3.45;;;15.80;70.70;;;;;;5012796;28;20052;-68
2024/04/10 13:41:31;;;;;;;8.13;2.20;;;15.50;70.40;;;;;;5032524;28;20503;-69
2024/04/10 13:43:58;;;;;;;7.28;2.50;;;15.40;70.50;;;;;;5028913;28;21498;-69
2024/04/10 13:46:25;;;;;;;7.72;2.28;;;15.90;70.90;;;;;;5030150;28;20064;-70
2024/04/10 13:48:51;;;;;;;10.52;2.80;;;16.70;70.50;;;;;;5012275;28;20061;-70
2024/04/10 13:51:25;;;;;;;7.95;2.08;;;17.60;70.10;;;;;;4996184;28;20142;-70
2024/04/10 13:53:50;;;;;;;10.68;2.75;;;17.90;68.70;;;;;;5009785;28;20057;-70
2024/04/10 13:56:16;;;;;;;11.60;2.45;;;17.90;68.40;;;;;;5009887;28;20684;-70
2024/04/10 13:58:42;;;;;;;9.60;2.22;;;18.30;68.00;;;;;;5010741;28;20053;-70
2024/04/10 14:01:18;;;;;;;6.30;2.03;;;18.70;68.80;;;;;;5010320;28;20049;-70
2024/04/10 14:03:46;;;;;;;13.68;2.47;;;19.00;67.30;;;;;;5009690;28;20312;-70
2024/04/10 14:06:12;;;;;;;5.70;1.85;;;19.40;67.80;;;;;;5013214;28;20411;-70
2024/04/10 14:08:42;;;;;;;6.63;2.00;;;19.60;67.60;;;;;;5019709;28;20041;-70
2024/04/10 14:11:08;;;;;;;8.25;2.20;;;19.30;66.10;;;;;;5017698;28;20145;-70
2024/04/10 14:13:35;;;;;;;5.93;1.67;;;18.70;65.90;;;;;;5035804;28;20090;-70
2024/04/10 14:16:02;;;;;;;7.20;2.35;;;18.80;66.70;;;;;;5027076;28;20048;-70
2024/04/10 14:18:28;;;;;;;6.55;1.85;;;18.90;65.50;;;;;;5020405;28;20127;-69
2024/04/10 14:20:58;;;;;;;5.50;1.80;;;18.40;65.50;;;;;;5019446;28;20041;-69
2024/04/10 14:23:24;;;;;;;8.27;2.35;;;17.90;65.50;;;;;;5015996;28;20797;-69
2024/04/10 14:25:52;;;;;;;9.63;1.90;;;17.30;65.70;;;;;;5011505;28;20057;-70
2024/04/10 14:28:19;;;;;;;8.98;1.95;;;17.20;66.50;;;;;;5010582;28;20092;-69
2024/04/10 14:30:59;;;;;;;8.45;2.13;;;17.70;66.50;;;;;;5010931;28;20083;-70
2024/04/10 14:33:29;;;;;;;6.30;1.98;;;17.80;66.20;;;;;;5030105;28;20161;-69
2024/04/10 14:35:55;;;;;;;4.60;1.70;;;17.50;65.80;;;;;;5011725;28;20419;-69
2024/04/10 14:38:22;;;;;;;11.77;2.10;;;17.30;66.10;;;;;;5013374;28;20061;-69
2024/04/10 14:40:51;;;;;;;8.38;1.80;;;17.40;65.90;;;;;;5010236;28;20359;-69
2024/04/10 14:43:17;;;;;;;7.43;1.50;;;18.20;66.20;;;;;;5012486;28;20488;-69
2024/04/10 14:45:43;;;;;;;7.63;1.65;;;18.80;65.80;;;;;;5011839;28;20119;-69
2024/04/10 14:48:10;;;;;;;5.72;1.67;;;18.60;65.00;;;;;;5029005;28;20059;-70
2024/04/10 14:50:36;;;;;;;12.70;1.83;;;18.20;65.60;;;;;;5028948;28;20045;-69
2024/04/10 14:53:03;;;;;;;5.50;1.40;;;17.70;65.70;;;;;;4995539;28;20052;-68
2024/04/10 14:55:29;;;;;;;5.32;1.95;;;17.20;65.30;;;;;;5025966;28;20515;-68
2024/04/10 14:57:55;;;;;;;5.32;1.52;;;16.80;65.50;;;;;;5012189;28;20064;-68
2024/04/10 15:00:22;;;;;;;8.70;2.22;;;16.60;65.90;;;;;;5028420;28;20329;-69
2024/04/10 15:02:47;;;;;;;7.95;2.08;;;16.50;66.20;;;;;;5011281;28;20435;-68
2024/04/10 15:05:13;;;;;;;6.70;1.60;;;16.40;66.00;;;;;;5031663;28;20041;-68
2024/04/10 15:07:39;;;;;;;7.35;1.80;;;16.30;66.00;;;;;;5014937;28;20056;-68
2024/04/10 15:10:05;;;;;;;8.52;1.92;;;16.30;65.90;;;;;;5014714;28;20091;-68
2024/04/10 15:12:30;;;;;;;6.30;1.85;;;16.30;65.60;;;;;;5034312;28;20542;-68
2024/04/10 15:14:59;;;;;;;11.65;2.83;;;16.20;65.10;;;;;;5015479;28;20048;-68
2024/04/10 15:17:25;;;;;;;6.80;1.98;;;16.00;65.80;;;;;;4993877;28;20447;-68
2024/04/10 15:19:50;;;;;;;8.77;1.90;;;15.80;66.20;;;;;;5015081;28;20136;-69
2024/04/10 15:22:16;;;;;;;6.65;1.70;;;15.60;65.90;;;;;;4997637;28;20037;-68
2024/04/10 15:24:42;;;;;;;10.48;2.10;;;15.60;65.90;;;;;;5035180;28;20045;-68
2024/04/10 15:27:08;;;;;;;11.77;2.30;;;15.60;66.20;;;;;;5014396;28;20132;-68
2024/04/10 15:29:34;;;;;;;5.60;1.45;;;15.50;65.80;;;;;;5013244;28;20053;-68
2024/04/10 15:32:00;;;;;;;5.80;1.85;;;15.40;65.80;;;;;;5029220;28;20082;-68
2024/04/10 15:34:25;;;;;;;5.97;1.95;;;15.40;65.80;;;;;;5013867;28;20053;-69
2024/04/10 15:36:52;;;;;;;7.03;1.65;;;15.30;65.90;;;;;;5030614;28;20434;-68
2024/04/10 15:39:17;;;;;;;6.05;1.92;;;15.20;66.10;;;;;;5028920;28;20102;-68
2024/04/10 15:41:43;;;;;;;4.93;1.50;;;15.20;66.50;;;;;;5012214;28;20234;-68
2024/04/10 15:44:09;;;;;;;4.45;1.48;;;15.20;66.30;;;;;;5010585;28;20044;-68
2024/04/10 15:46:35;;;;;;;9.63;1.90;;;15.10;66.10;;;;;;5032650;28;20577;-69
2024/04/10 15:49:01;;;;;;;8.13;1.90;;;15.10;66.30;;;;;;4996476;28;20418;-69
2024/04/10 15:51:27;;;;;;;10.13;1.55;;;15.00;66.20;;;;;;5014315;28;20053;-68
2024/04/10 15:53:53;;;;;;;8.93;2.20;;;15.00;66.30;;;;;;5014810;28;20456;-68
2024/04/10 15:56:19;;;;;;;8.25;2.08;;;14.90;66.10;;;;;;5014666;28;20057;-68
2024/04/10 15:58:45;;;;;;;5.90;1.83;;;14.90;66.60;;;;;;5014760;28;20594;-68
2024/04/10 16:01:12;;;;;;;7.82;1.80;;;14.90;66.90;;;;;;5014374;28;20048;-68
2024/04/10 16:03:43;;;;;;;6.45;1.80;;;14.90;66.60;;;;;;5038171;28;20138;-69
2024/04/10 16:06:13;;;;;;;9.18;1.80;;;14.90;67.00;;;;;;5023878;28;20465;-72
2024/04/10 16:08:41;;;;;;;8.45;2.00;;;14.90;67.10;;;;;;5022556;28;20405;-74
2024/04/10 16:11:20;;;;;;;8.52;2.50;;;14.90;66.90;;;;;;5039117;28;20427;-75
2024/04/10 18:37:09;;;;;;;7.28;2.58;;;11.40;71.80;;;;;;5017989;27;20599;-75
2024/04/10 18:39:37;;;;;;;7.10;1.70;;;11.20;72.10;;;;;;4984954;28;20111;-75
2024/04/10 18:42:04;;;;;;;6.65;2.13;;;11.10;72.10;;;;;;5013968;28;20120;-75
2024/04/10 18:44:35;;;;;;;7.43;2.38;;;11.10;72.20;;;;;;4977898;28;20046;-76
2024/04/10 18:47:01;;;;;;;7.97;2.20;;;11.00;72.20;;;;;;4971575;28;20120;-76
